Wetterstation Vordersexau
Wetterdaten: Woche 12.11.12 - 18.11.12 (KW46)
Datum Zeit Temp. A. Feuchte A. Luftdruck Regen Wind Richtung Taupunkt Windchill Windben
12.11.2012 00:00 8,1 C 67 % 1019,1 hPa 0,0 l/m 0,0 km/h SO 2,3 C 8,1 C 0,0 km/h
12.11.2012 01:00 7,8 C 68 % 1019,2 hPa 0,0 l/m 0,0 km/h SO 2,3 C 7,8 C 0,0 km/h
12.11.2012 02:00 7,5 C 68 % 1020,2 hPa 0,0 l/m 0,0 km/h NO 2,0 C 7,5 C 0,0 km/h
12.11.2012 03:00 7,4 C 68 % 1019,9 hPa 0,0 l/m 0,0 km/h NO 1,9 C 7,4 C 0,0 km/h
12.11.2012 04:00 7,2 C 68 % 1020,0 hPa 0,0 l/m 0,0 km/h O-SO 1,7 C 7,2 C 0,0 km/h
12.11.2012 05:00 6,7 C 69 % 1020,8 hPa 0,0 l/m 0,0 km/h NO 1,4 C 6,7 C 0,0 km/h
12.11.2012 06:00 6,9 C 68 % 1021,0 hPa 0,0 l/m 0,0 km/h O-NO 1,4 C 6,9 C 0,0 km/h
12.11.2012 07:00 6,8 C 68 % 1021,4 hPa 0,0 l/m 0,0 km/h NO 1,3 C 6,8 C 0,0 km/h
12.11.2012 08:00 7,1 C 67 % 1022,2 hPa 0,0 l/m 0,0 km/h NO 1,4 C 7,1 C 0,0 km/h
12.11.2012 09:00 7,8 C 65 % 1022,7 hPa 0,0 l/m 0,0 km/h N 1,6 C 7,8 C 0,0 km/h
12.11.2012 10:00 8,5 C 67 % 1023,4 hPa 0,0 l/m 0,0 km/h N-NO 2,7 C 8,5 C 0,0 km/h
12.11.2012 11:00 9,6 C 77 % 1023,8 hPa 0,0 l/m 0,0 km/h NO 5,8 C 9,6 C 0,0 km/h
12.11.2012 12:00 11,2 C 85 % 1023,5 hPa 0,0 l/m 0,0 km/h NW 8,8 C 11,2 C 0,0 km/h
12.11.2012 13:00 10,8 C 82 % 1023,7 hPa 0,0 l/m 1,3 km/h N-NW 7,9 C 10,8 C 0,7 km/h
12.11.2012 14:00 10,4 C 81 % 1023,6 hPa 0,0 l/m 0,0 km/h NO 7,3 C 10,4 C 0,0 km/h
12.11.2012 15:00 10,4 C 77 % 1023,9 hPa 0,0 l/m 0,0 km/h N-NO 6,5 C 10,4 C 0,0 km/h
12.11.2012 16:00 12,3 C 74 % 1024,4 hPa 0,0 l/m 0,0 km/h NO 7,8 C 12,3 C 0,0 km/h
12.11.2012 17:00 7,1 C 81 % 1024,9 hPa 0,0 l/m 0,0 km/h O-SO 4,1 C 7,1 C 0,0 km/h
12.11.2012 18:00 4,8 C 85 % 1025,3 hPa 0,0 l/m 0,0 km/h NO 2,5 C 4,8 C 0,0 km/h
12.11.2012 19:00 3,4 C 86 % 1026,0 hPa 0,0 l/m 0,0 km/h NO 1,3 C 3,4 C 0,0 km/h
12.11.2012 20:00 2,2 C 85 % 1026,6 hPa 0,0 l/m 0,0 km/h NO -0,1 C 2,2 C 0,0 km/h
12.11.2012 21:00 1,4 C 85 % 1027,1 hPa 0,0 l/m 0,0 km/h NO -0,8 C 1,4 C 0,0 km/h
12.11.2012 22:00 0,9 C 84 % 1027,3 hPa 0,0 l/m 0,0 km/h NO -1,5 C 0,9 C 0,0 km/h
12.11.2012 23:00 0,9 C 83 % 1027,5 hPa 0,0 l/m 0,0 km/h NO -1,7 C 0,9 C 0,0 km/h
13.11.2012 00:00 0,8 C 82 % 1027,7 hPa 0,4 l/m 0,0 km/h NO -1,9 C 0,8 C 0,0 km/h
13.11.2012 01:00 0,4 C 82 % 1027,9 hPa 0,0 l/m 0,0 km/h S-SO -2,3 C 0,4 C 0,0 km/h
13.11.2012 02:00 0,8 C 81 % 1027,6 hPa 0,0 l/m 0,0 km/h SO -2,1 C 0,8 C 0,0 km/h
13.11.2012 03:00 0,1 C 81 % 1028,0 hPa 0,0 l/m 0,0 km/h O-SO -2,8 C 0,1 C 0,0 km/h
13.11.2012 04:00 1,3 C 79 % 1028,3 hPa 0,0 l/m 0,0 km/h S-SO -1,9 C 1,3 C 0,0 km/h
13.11.2012 05:00 1,6 C 78 % 1028,5 hPa 0,0 l/m 0,0 km/h NO -1,8 C 1,6 C 0,0 km/h
13.11.2012 06:00 1,0 C 78 % 1028,3 hPa 0,0 l/m 0,0 km/h NO -2,4 C 1,0 C 0,0 km/h
13.11.2012 07:00 -0,4 C 78 % 1028,8 hPa 0,0 l/m 0,0 km/h NO -3,8 C -0,4 C 0,0 km/h
13.11.2012 08:00 0,4 C 77 % 1029,5 hPa 0,0 l/m 0,0 km/h N-NW -3,1 C 0,4 C 0,0 km/h
13.11.2012 09:00 2,1 C 73 % 1029,7 hPa 0,0 l/m 0,0 km/h W-NW -2,2 C 2,1 C 0,0 km/h
13.11.2012 10:00 3,9 C 69 % 1029,7 hPa 0,0 l/m 0,0 km/h S-SW -1,3 C 3,9 C 0,0 km/h
13.11.2012 11:00 5,5 C 67 % 1029,3 hPa 0,0 l/m 0,0 km/h N-NO -0,1 C 5,5 C 0,0 km/h
13.11.2012 12:00 5,4 C 77 % 1029,1 hPa 0,0 l/m 0,0 km/h N-NO 1,7 C 5,4 C 0,0 km/h
13.11.2012 13:00 5,5 C 79 % 1028,8 hPa 0,0 l/m 0,0 km/h W-SW 2,2 C 5,5 C 0,0 km/h
13.11.2012 14:00 5,4 C 81 % 1028,4 hPa 0,0 l/m 1,9 km/h NW 2,4 C 5,4 C 1,1 km/h
13.11.2012 15:00 5,1 C 81 % 1028,1 hPa 0,0 l/m 0,0 km/h SO 2,1 C 5,1 C 0,0 km/h
13.11.2012 16:00 4,6 C 81 % 1027,8 hPa 0,0 l/m 0,0 km/h S-SO 1,6 C 4,6 C 0,0 km/h
13.11.2012 17:00 4,4 C 80 % 1027,6 hPa 0,0 l/m 0,0 km/h NO 1,3 C 4,4 C 0,0 km/h
13.11.2012 18:00 3,3 C 81 % 1027,4 hPa 0,0 l/m 0,0 km/h NO 0,4 C 3,3 C 0,0 km/h
13.11.2012 19:00 3,7 C 77 % 1027,1 hPa 0,0 l/m 0,0 km/h O 0,1 C 3,7 C 0,0 km/h
13.11.2012 20:00 3,2 C 77 % 1027,2 hPa 0,0 l/m 0,0 km/h O -0,4 C 3,2 C 0,0 km/h
13.11.2012 21:00 2,6 C 76 % 1027,3 hPa 0,0 l/m 0,0 km/h NO -1,2 C 2,6 C 0,0 km/h
13.11.2012 22:00 2,4 C 75 % 1027,2 hPa 0,0 l/m 0,0 km/h NO -1,6 C 2,4 C 0,0 km/h
13.11.2012 23:00 2,5 C 74 % 1027,2 hPa 0,0 l/m 0,0 km/h NO -1,7 C 2,5 C 0,0 km/h
14.11.2012 00:00 2,8 C 74 % 1026,9 hPa 0,0 l/m 0,0 km/h NO -1,4 C 2,8 C 0,0 km/h
14.11.2012 01:00 2,6 C 73 % 1026,5 hPa 0,0 l/m 0,0 km/h SO -1,7 C 2,6 C 0,0 km/h
14.11.2012 02:00 1,9 C 74 % 1026,4 hPa 0,0 l/m 0,0 km/h NO -2,2 C 1,9 C 0,0 km/h
14.11.2012 03:00 2,2 C 74 % 1026,4 hPa 0,0 l/m 0,0 km/h O-SO -1,9 C 2,2 C 0,0 km/h
14.11.2012 04:00 2,6 C 72 % 1025,7 hPa 0,0 l/m 0,0 km/h NO -1,9 C 2,6 C 0,0 km/h
14.11.2012 05:00 3,0 C 71 % 1025,6 hPa 0,0 l/m 0,0 km/h S-SO -1,7 C 3,0 C 0,0 km/h
14.11.2012 06:00 3,3 C 70 % 1025,0 hPa 0,0 l/m 0,0 km/h S-SO -1,6 C 3,3 C 0,0 km/h
14.11.2012 07:00 1,2 C 74 % 1025,0 hPa 0,0 l/m 0,0 km/h W-SW -2,9 C 1,2 C 0,0 km/h
14.11.2012 08:00 2,9 C 69 % 1025,4 hPa 0,0 l/m 0,0 km/h S-SW -2,2 C 2,9 C 0,0 km/h
14.11.2012 09:00 3,4 C 67 % 1025,4 hPa 0,0 l/m 0,0 km/h SW -2,1 C 3,4 C 0,0 km/h
14.11.2012 10:00 4,5 C 65 % 1025,1 hPa 0,0 l/m 0,0 km/h NW -1,5 C 4,5 C 0,0 km/h
14.11.2012 11:00 5,8 C 65 % 1024,5 hPa 0,0 l/m 0,0 km/h N-NW -0,3 C 5,8 C 0,0 km/h
14.11.2012 12:00 6,1 C 76 % 1024,1 hPa 0,0 l/m 0,0 km/h NO 2,2 C 6,1 C 0,0 km/h
14.11.2012 13:00 6,1 C 81 % 1023,6 hPa 0,0 l/m 0,0 km/h NO 3,1 C 6,1 C 0,0 km/h
14.11.2012 14:00 5,9 C 83 % 1022,9 hPa 0,0 l/m 0,0 km/h W 3,2 C 5,9 C 0,0 km/h
14.11.2012 15:00 6,1 C 83 % 1022,6 hPa 0,0 l/m 0,0 km/h S-SO 3,4 C 6,1 C 0,0 km/h
14.11.2012 16:00 5,2 C 83 % 1022,6 hPa 0,0 l/m 0,0 km/h S-SO 2,6 C 5,2 C 0,0 km/h
14.11.2012 17:00 4,9 C 82 % 1022,9 hPa 0,0 l/m 0,6 km/h S-SO 2,1 C 4,9 C 0,4 km/h
14.11.2012 18:00 4,4 C 80 % 1022,9 hPa 0,0 l/m 0,0 km/h S-SO 1,3 C 4,4 C 0,0 km/h
14.11.2012 19:00 4,3 C 78 % 1022,7 hPa 0,0 l/m 1,3 km/h O-NO 0,8 C 4,3 C 0,7 km/h
14.11.2012 20:00 3,9 C 77 % 1022,3 hPa 0,0 l/m 0,0 km/h S-SO 0,2 C 3,9 C 0,0 km/h
14.11.2012 21:00 3,3 C 76 % 1022,4 hPa 0,0 l/m 0,0 km/h S-SO -0,5 C 3,3 C 0,0 km/h
14.11.2012 22:00 2,9 C 75 % 1022,3 hPa 0,0 l/m 0,0 km/h S-SO -1,1 C 2,9 C 0,0 km/h
14.11.2012 23:00 2,7 C 74 % 1022,2 hPa 0,0 l/m 0,0 km/h S-SO -1,5 C 2,7 C 0,0 km/h
15.11.2012 00:00 2,8 C 74 % 1021,9 hPa 0,0 l/m 0,0 km/h S-SO -1,4 C 2,8 C 0,0 km/h
15.11.2012 01:00 2,6 C 73 % 1021,7 hPa 0,0 l/m 0,0 km/h S-SO -1,7 C 2,6 C 0,0 km/h
15.11.2012 02:00 2,3 C 72 % 1021,6 hPa 0,0 l/m 0,0 km/h S -2,2 C 2,3 C 0,0 km/h
15.11.2012 03:00 1,8 C 71 % 1021,7 hPa 0,0 l/m 1,9 km/h S -2,9 C 1,8 C 1,1 km/h
15.11.2012 04:00 1,6 C 71 % 1021,4 hPa 0,0 l/m 0,0 km/h S-SO -3,1 C 1,6 C 0,0 km/h
15.11.2012 05:00 1,5 C 70 % 1021,1 hPa 0,0 l/m 0,0 km/h S-SO -3,4 C 1,5 C 0,0 km/h
15.11.2012 06:00 1,6 C 70 % 1021,3 hPa 0,0 l/m 0,0 km/h SO -3,3 C 1,6 C 0,0 km/h
15.11.2012 07:00 1,8 C 69 % 1021,2 hPa 0,0 l/m 1,3 km/h NO -3,3 C 1,8 C 0,7 km/h
15.11.2012 08:00 1,8 C 68 % 1021,2 hPa 0,0 l/m 4,5 km/h NO -3,5 C 1,8 C 2,5 km/h
15.11.2012 09:00 2,6 C 67 % 1021,2 hPa 0,0 l/m 0,0 km/h S-SO -2,9 C 2,6 C 0,0 km/h
15.11.2012 10:00 3,1 C 65 % 1021,4 hPa 0,0 l/m 1,3 km/h S-SO -2,8 C 3,1 C 0,7 km/h
15.11.2012 11:00 3,8 C 65 % 1021,3 hPa 0,0 l/m 0,6 km/h S -2,2 C 3,8 C 0,4 km/h
15.11.2012 12:00 4,5 C 66 % 1020,4 hPa 0,0 l/m 0,0 km/h SW -1,3 C 4,5 C 0,0 km/h
15.11.2012 13:00 4,8 C 73 % 1020,2 hPa 0,0 l/m 0,0 km/h W-SW 0,4 C 4,8 C 0,0 km/h
15.11.2012 14:00 4,4 C 79 % 1019,8 hPa 0,0 l/m 0,0 km/h N 1,1 C 4,4 C 0,0 km/h
15.11.2012 15:00 4,2 C 80 % 1019,5 hPa 0,0 l/m 0,0 km/h S-SO 1,1 C 4,2 C 0,0 km/h
15.11.2012 16:00 3,8 C 81 % 1019,4 hPa 0,0 l/m 0,0 km/h S-SO 0,8 C 3,8 C 0,0 km/h
15.11.2012 17:00 3,6 C 79 % 1019,3 hPa 0,0 l/m 0,0 km/h SO 0,3 C 3,6 C 0,0 km/h
15.11.2012 18:00 3,6 C 78 % 1019,7 hPa 0,0 l/m 1,3 km/h S-SO 0,1 C 3,6 C 0,7 km/h
15.11.2012 19:00 3,6 C 76 % 1019,4 hPa 0,0 l/m 0,0 km/h SO -0,2 C 3,6 C 0,0 km/h
15.11.2012 20:00 3,8 C 75 % 1018,8 hPa 0,0 l/m 8,4 km/h S-SO -0,2 C 2,0 C 4,7 km/h
15.11.2012 21:00 3,9 C 74 % 1018,8 hPa 0,0 l/m 0,0 km/h S-SO -0,3 C 3,9 C 0,0 km/h
15.11.2012 22:00 3,6 C 73 % 1018,9 hPa 0,0 l/m 7,1 km/h SO -0,8 C 3,0 C 4,0 km/h
15.11.2012 23:00 3,6 C 72 % 1018,6 hPa 0,0 l/m 0,0 km/h SO -1,0 C 3,6 C 0,0 km/h
16.11.2012 00:00 3,5 C 72 % 1018,4 hPa 0,4 l/m 1,9 km/h SO -1,1 C 3,5 C 1,1 km/h
16.11.2012 01:00 3,6 C 72 % 1018,1 hPa 0,0 l/m 1,9 km/h S-SO -1,0 C 3,6 C 1,1 km/h
16.11.2012 02:00 3,6 C 73 % 1018,3 hPa 0,0 l/m 0,0 km/h S-SO -0,8 C 3,6 C 0,0 km/h
16.11.2012 03:00 3,6 C 73 % 1018,2 hPa 0,0 l/m 0,0 km/h SO -0,8 C 3,6 C 0,0 km/h
16.11.2012 04:00 3,5 C 73 % 1017,8 hPa 0,0 l/m 0,0 km/h O-SO -0,9 C 3,5 C 0,0 km/h
16.11.2012 05:00 3,3 C 74 % 1017,6 hPa 0,0 l/m 0,0 km/h SO -0,9 C 3,3 C 0,0 km/h
16.11.2012 06:00 2,9 C 75 % 1017,6 hPa 0,0 l/m 0,0 km/h SO -1,1 C 2,9 C 0,0 km/h
16.11.2012 07:00 2,6 C 74 % 1017,4 hPa 0,0 l/m 0,0 km/h SO -1,6 C 2,6 C 0,0 km/h
16.11.2012 08:00 2,7 C 74 % 1017,6 hPa 0,0 l/m 0,0 km/h S-SO -1,5 C 2,7 C 0,0 km/h
16.11.2012 09:00 2,9 C 75 % 1017,6 hPa 0,0 l/m 6,5 km/h S-SO -1,1 C 2,8 C 3,6 km/h
16.11.2012 10:00 3,8 C 76 % 1017,9 hPa 0,0 l/m 0,6 km/h SO -0,0 C 3,8 C 0,4 km/h
16.11.2012 11:00 5,9 C 85 % 1017,6 hPa 0,0 l/m 4,5 km/h S-SO 3,6 C 5,9 C 2,5 km/h
16.11.2012 12:00 7,4 C 86 % 1016,9 hPa 0,0 l/m 0,0 km/h N-NO 5,2 C 7,4 C 0,0 km/h
16.11.2012 13:00 8,2 C 86 % 1016,5 hPa 0,0 l/m 0,0 km/h W-SW 6,0 C 8,2 C 0,0 km/h
16.11.2012 14:00 7,6 C 86 % 1016,0 hPa 0,0 l/m 0,0 km/h SO 5,4 C 7,6 C 0,0 km/h
16.11.2012 15:00 6,9 C 86 % 1015,5 hPa 0,0 l/m 0,0 km/h SO 4,7 C 6,9 C 0,0 km/h
16.11.2012 16:00 6,5 C 86 % 1015,8 hPa 0,0 l/m 0,0 km/h SO 4,3 C 6,5 C 0,0 km/h
16.11.2012 17:00 6,2 C 84 % 1015,6 hPa 0,0 l/m 0,0 km/h S-SO 3,7 C 6,2 C 0,0 km/h
16.11.2012 18:00 6,1 C 83 % 1015,7 hPa 0,0 l/m 0,0 km/h SO 3,4 C 6,1 C 0,0 km/h
16.11.2012 19:00 5,9 C 82 % 1015,4 hPa 0,0 l/m 2,6 km/h SO 3,1 C 5,9 C 1,4 km/h
16.11.2012 20:00 5,7 C 81 % 1015,2 hPa 0,0 l/m 1,3 km/h SO 2,7 C 5,7 C 0,7 km/h
16.11.2012 21:00 5,5 C 81 % 1015,2 hPa 0,0 l/m 0,0 km/h S-SO 2,5 C 5,5 C 0,0 km/h
16.11.2012 22:00 5,6 C 81 % 1015,0 hPa 0,0 l/m 0,6 km/h SO 2,6 C 5,6 C 0,4 km/h
16.11.2012 23:00 5,5 C 81 % 1014,8 hPa 0,0 l/m 0,0 km/h SO 2,5 C 5,5 C 0,0 km/h
17.11.2012 00:00 5,3 C 82 % 1014,5 hPa 0,0 l/m 0,0 km/h SO 2,5 C 5,3 C 0,0 km/h
17.11.2012 01:00 4,9 C 83 % 1014,5 hPa 0,0 l/m 4,5 km/h SO 2,3 C 4,9 C 2,5 km/h
17.11.2012 02:00 4,7 C 83 % 1013,8 hPa 0,0 l/m 0,0 km/h S-SO 2,1 C 4,7 C 0,0 km/h
17.11.2012 03:00 4,4 C 84 % 1013,5 hPa 0,0 l/m 7,8 km/h S-SO 1,9 C 3,1 C 4,3 km/h
17.11.2012 04:00 4,4 C 84 % 1013,3 hPa 0,0 l/m 0,0 km/h SO 1,9 C 4,4 C 0,0 km/h
17.11.2012 05:00 3,9 C 85 % 1012,9 hPa 0,0 l/m 0,0 km/h S-SO 1,6 C 3,9 C 0,0 km/h
17.11.2012 06:00 3,6 C 85 % 1012,8 hPa 0,0 l/m 11,0 km/h SO 1,3 C -0,2 C 6,1 km/h
17.11.2012 07:00 3,3 C 84 % 1012,6 hPa 0,0 l/m 1,3 km/h S-SO 0,9 C 3,3 C 0,7 km/h
17.11.2012 08:00 2,5 C 84 % 1012,8 hPa 0,0 l/m 0,6 km/h S-SO 0,1 C 2,5 C 0,4 km/h
17.11.2012 09:00 3,5 C 82 % 1012,7 hPa 0,0 l/m 4,5 km/h W-NW 0,7 C 3,5 C 2,5 km/h
17.11.2012 10:00 4,3 C 84 % 1012,8 hPa 0,0 l/m 0,0 km/h W 1,8 C 4,3 C 0,0 km/h
17.11.2012 11:00 5,7 C 86 % 1012,3 hPa 0,0 l/m 0,0 km/h NW 3,5 C 5,7 C 0,0 km/h
17.11.2012 12:00 7,6 C 86 % 1011,5 hPa 0,0 l/m 3,2 km/h N-NW 5,4 C 7,6 C 1,8 km/h
17.11.2012 13:00 11,1 C 79 % 1010,8 hPa 0,0 l/m 0,0 km/h NW 7,6 C 11,1 C 0,0 km/h
17.11.2012 14:00 13,9 C 71 % 1010,1 hPa 0,0 l/m 1,3 km/h W-NW 8,7 C 13,9 C 0,7 km/h
17.11.2012 15:00 15,2 C 66 % 1009,9 hPa 0,0 l/m 0,0 km/h NO 8,9 C 15,2 C 0,0 km/h
17.11.2012 16:00 14,3 C 66 % 1009,8 hPa 0,0 l/m 0,0 km/h NO 8,0 C 14,3 C 0,0 km/h
17.11.2012 17:00 6,9 C 83 % 1009,7 hPa 0,0 l/m 0,0 km/h SO 4,2 C 6,9 C 0,0 km/h
17.11.2012 18:00 6,6 C 85 % 1009,6 hPa 0,0 l/m 0,0 km/h W-NW 4,3 C 6,6 C 0,0 km/h
17.11.2012 19:00 7,0 C 85 % 1009,8 hPa 0,0 l/m 0,0 km/h O-SO 4,7 C 7,0 C 0,0 km/h
17.11.2012 20:00 7,3 C 84 % 1009,8 hPa 0,0 l/m 0,0 km/h N 4,8 C 7,3 C 0,0 km/h
17.11.2012 21:00 7,5 C 84 % 1009,8 hPa 0,0 l/m 0,0 km/h N-NW 5,0 C 7,5 C 0,0 km/h
17.11.2012 22:00 7,3 C 83 % 1010,2 hPa 0,0 l/m 0,0 km/h N-NW 4,6 C 7,3 C 0,0 km/h
17.11.2012 23:00 7,3 C 83 % 1009,9 hPa 0,0 l/m 0,0 km/h N 4,6 C 7,3 C 0,0 km/h
18.11.2012 00:00 7,3 C 82 % 1010,2 hPa 0,0 l/m 0,0 km/h N 4,4 C 7,3 C 0,0 km/h
18.11.2012 01:00 7,3 C 82 % 1009,9 hPa 0,0 l/m 0,0 km/h N 4,4 C 7,3 C 0,0 km/h
18.11.2012 02:00 5,9 C 83 % 1009,6 hPa 0,0 l/m 0,0 km/h N 3,2 C 5,9 C 0,0 km/h
18.11.2012 03:00 4,1 C 84 % 1009,6 hPa 0,0 l/m 0,0 km/h O-NO 1,6 C 4,1 C 0,0 km/h
18.11.2012 04:00 3,6 C 83 % 1009,3 hPa 0,0 l/m 0,0 km/h O 1,0 C 3,6 C 0,0 km/h
18.11.2012 05:00 2,4 C 82 % 1009,6 hPa 0,0 l/m 0,0 km/h O-NO -0,4 C 2,4 C 0,0 km/h
18.11.2012 06:00 2,5 C 81 % 1009,5 hPa 0,0 l/m 0,0 km/h O-NO -0,4 C 2,5 C 0,0 km/h
18.11.2012 07:00 2,1 C 80 % 1009,9 hPa 0,0 l/m 0,0 km/h SO -1,0 C 2,1 C 0,0 km/h
18.11.2012 08:00 2,6 C 78 % 1010,3 hPa 0,0 l/m 0,0 km/h O-SO -0,8 C 2,6 C 0,0 km/h
18.11.2012 09:00 6,3 C 70 % 1010,5 hPa 0,0 l/m 0,0 km/h O-SO 1,2 C 6,3 C 0,0 km/h
18.11.2012 10:00 8,9 C 77 % 1010,5 hPa 0,0 l/m 0,0 km/h N-NO 5,1 C 8,9 C 0,0 km/h
18.11.2012 11:00 13,0 C 76 % 1010,9 hPa 0,0 l/m 0,0 km/h N-NO 8,9 C 13,0 C 0,0 km/h
18.11.2012 12:00 12,1 C 80 % 1010,4 hPa 0,0 l/m 0,0 km/h W-NW 8,8 C 12,1 C 0,0 km/h
18.11.2012 13:00 15,4 C 73 % 1010,2 hPa 0,0 l/m 0,0 km/h NO 10,6 C 15,4 C 0,0 km/h
18.11.2012 14:00 14,3 C 70 % 1010,4 hPa 0,0 l/m 0,0 km/h SO 8,9 C 14,3 C 0,0 km/h
18.11.2012 15:00 16,1 C 67 % 1010,5 hPa 0,0 l/m 0,0 km/h O-SO 10,0 C 16,1 C 0,0 km/h
18.11.2012 16:00 11,6 C 73 % 1010,7 hPa 0,0 l/m 0,0 km/h O-NO 6,9 C 11,6 C 0,0 km/h
18.11.2012 17:00 7,5 C 83 % 1011,0 hPa 0,0 l/m 0,0 km/h S-SO 4,8 C 7,5 C 0,0 km/h
18.11.2012 18:00 6,4 C 85 % 1011,6 hPa 0,0 l/m 1,3 km/h SO 4,1 C 6,4 C 0,7 km/h
18.11.2012 19:00 5,8 C 85 % 1012,1 hPa 0,0 l/m 0,0 km/h O-NO 3,5 C 5,8 C 0,0 km/h
18.11.2012 20:00 4,8 C 85 % 1012,6 hPa 0,0 l/m 0,0 km/h SO 2,5 C 4,8 C 0,0 km/h
18.11.2012 21:00 3,9 C 85 % 1012,9 hPa 0,0 l/m 0,0 km/h O-SO 1,6 C 3,9 C 0,0 km/h
18.11.2012 22:00 4,1 C 82 % 1013,1 hPa 0,0 l/m 0,0 km/h SO 1,3 C 4,1 C 0,0 km/h
18.11.2012 23:00 3,8 C 82 % 1013,1 hPa 0,0 l/m 0,0 km/h O-SO 1,0 C 3,8 C 0,0 km/h
Min-Datum _ 13.11.12 12.11.12 18.11.12 - 12.11.12 - 13.11.12 13.11.12 12.11.12
_ Min-Zeit 07:19 09:19 04:19 - 00:19 - 07:19 07:19 00:19
Minimum _ -0,4 C 65 % 1009,3 hPa - 0,0 km/h - -3,8 C -0,4 C 0,0 km/h
Max-Datum _ 18.11.12 12.11.12 13.11.12 13.11.12 17.11.12 - 18.11.12 18.11.12 17.11.12
_ Max-Zeit 15:19 19:19 09:19 00:19 06:19 - 13:19 15:19 06:19
Maximum _ 16,1 C 86 % 1029,7 hPa 0,4 l/m 11,0 km/h
SO
- 10,6 C 16,1 C 6,1 km/h
SO
Durchschnitt _ 5,1 C 77 % 1019,3 hPa #0,7 l/m 0,5 km/h S-SO 1,4 C 5,0 C 0,3 km/h
www.sexauwetter.de